sensor_id;sensor_type;location;lat;lon;timestamp;temperature;humidity
7518;DHT22;3800;48.922;9.444;2024-03-08T00:00:01;3.00;99.90
7518;DHT22;3800;48.922;9.444;2024-03-08T00:02:32;3.00;99.90
7518;DHT22;3800;48.922;9.444;2024-03-08T00:05:00;2.90;99.90
7518;DHT22;3800;48.922;9.444;2024-03-08T00:07:28;2.90;99.90
7518;DHT22;3800;48.922;9.444;2024-03-08T00:09:57;2.90;99.90
7518;DHT22;3800;48.922;9.444;2024-03-08T00:12:25;2.90;99.90
7518;DHT22;3800;48.922;9.444;2024-03-08T00:14:53;2.80;99.90
7518;DHT22;3800;48.922;9.444;2024-03-08T00:17:22;2.80;99.90
7518;DHT22;3800;48.922;9.444;2024-03-08T00:19:51;2.80;99.90
7518;DHT22;3800;48.922;9.444;2024-03-08T00:22:19;2.80;99.90
7518;DHT22;3800;48.922;9.444;2024-03-08T00:24:47;2.80;99.90
7518;DHT22;3800;48.922;9.444;2024-03-08T00:27:15;2.70;99.90
7518;DHT22;3800;48.922;9.444;2024-03-08T00:29:45;2.80;99.90
7518;DHT22;3800;48.922;9.444;2024-03-08T00:32:14;2.70;99.90
7518;DHT22;3800;48.922;9.444;2024-03-08T00:34:42;2.70;99.90
7518;DHT22;3800;48.922;9.444;2024-03-08T00:37:10;2.70;99.90
7518;DHT22;3800;48.922;9.444;2024-03-08T00:39:39;2.70;99.90
7518;DHT22;3800;48.922;9.444;2024-03-08T00:42:07;2.70;99.90
7518;DHT22;3800;48.922;9.444;2024-03-08T00:44:36;2.60;99.90
7518;DHT22;3800;48.922;9.444;2024-03-08T00:47:06;2.60;99.90
7518;DHT22;3800;48.922;9.444;2024-03-08T00:49:34;2.60;99.90
7518;DHT22;3800;48.922;9.444;2024-03-08T00:52:05;2.60;99.90
7518;DHT22;3800;48.922;9.444;2024-03-08T00:54:34;2.50;99.90
7518;DHT22;3800;48.922;9.444;2024-03-08T00:57:03;2.50;99.90
7518;DHT22;3800;48.922;9.444;2024-03-08T00:59:31;2.50;99.90
7518;DHT22;3800;48.922;9.444;2024-03-08T01:02:00;2.50;99.90
7518;DHT22;3800;48.922;9.444;2024-03-08T01:04:28;2.50;99.90
7518;DHT22;3800;48.922;9.444;2024-03-08T01:06:57;2.50;99.90
7518;DHT22;3800;48.922;9.444;2024-03-08T01:09:25;2.50;99.90
7518;DHT22;3800;48.922;9.444;2024-03-08T01:11:54;2.50;99.90
7518;DHT22;3800;48.922;9.444;2024-03-08T01:14:22;2.40;99.90
7518;DHT22;3800;48.922;9.444;2024-03-08T01:16:50;2.40;99.90
7518;DHT22;3800;48.922;9.444;2024-03-08T01:19:18;2.40;99.90
7518;DHT22;3800;48.922;9.444;2024-03-08T01:21:47;2.40;99.90
7518;DHT22;3800;48.922;9.444;2024-03-08T01:24:15;2.40;99.90
7518;DHT22;3800;48.922;9.444;2024-03-08T01:26:43;2.40;99.90
7518;DHT22;3800;48.922;9.444;2024-03-08T01:29:12;2.30;99.90
7518;DHT22;3800;48.922;9.444;2024-03-08T01:31:40;2.30;99.90
7518;DHT22;3800;48.922;9.444;2024-03-08T01:34:09;2.30;99.90
7518;DHT22;3800;48.922;9.444;2024-03-08T01:36:37;2.30;99.90
7518;DHT22;3800;48.922;9.444;2024-03-08T01:39:05;2.20;99.90
7518;DHT22;3800;48.922;9.444;2024-03-08T01:41:34;2.20;99.90
7518;DHT22;3800;48.922;9.444;2024-03-08T01:44:02;2.20;99.90
7518;DHT22;3800;48.922;9.444;2024-03-08T01:46:30;2.10;99.90
7518;DHT22;3800;48.922;9.444;2024-03-08T01:48:58;2.10;99.90
7518;DHT22;3800;48.922;9.444;2024-03-08T01:51:31;2.10;99.90
7518;DHT22;3800;48.922;9.444;2024-03-08T01:54:00;2.10;99.90
7518;DHT22;3800;48.922;9.444;2024-03-08T01:56:29;2.10;99.90
7518;DHT22;3800;48.922;9.444;2024-03-08T01:58:58;2.10;99.90
7518;DHT22;3800;48.922;9.444;2024-03-08T02:01:26;2.10;99.90
7518;DHT22;3800;48.922;9.444;2024-03-08T02:03:54;2.10;99.90
7518;DHT22;3800;48.922;9.444;2024-03-08T02:06:22;2.10;99.90
7518;DHT22;3800;48.922;9.444;2024-03-08T02:08:50;2.10;99.90
7518;DHT22;3800;48.922;9.444;2024-03-08T02:11:19;2.10;99.90
7518;DHT22;3800;48.922;9.444;2024-03-08T02:13:48;2.10;99.90
7518;DHT22;3800;48.922;9.444;2024-03-08T02:16:20;2.00;99.90
7518;DHT22;3800;48.922;9.444;2024-03-08T02:18:48;2.00;99.90
7518;DHT22;3800;48.922;9.444;2024-03-08T02:21:17;2.00;99.90
7518;DHT22;3800;48.922;9.444;2024-03-08T02:23:46;2.00;99.90
7518;DHT22;3800;48.922;9.444;2024-03-08T02:26:15;2.00;99.90
7518;DHT22;3800;48.922;9.444;2024-03-08T02:28:44;1.90;99.90
7518;DHT22;3800;48.922;9.444;2024-03-08T02:31:12;1.90;99.90
7518;DHT22;3800;48.922;9.444;2024-03-08T02:33:41;1.90;99.90
7518;DHT22;3800;48.922;9.444;2024-03-08T02:36:09;1.90;99.90
7518;DHT22;3800;48.922;9.444;2024-03-08T02:38:37;1.90;99.90
7518;DHT22;3800;48.922;9.444;2024-03-08T02:41:07;1.90;99.90
7518;DHT22;3800;48.922;9.444;2024-03-08T02:43:35;1.90;99.90
7518;DHT22;3800;48.922;9.444;2024-03-08T02:46:03;1.80;99.90
7518;DHT22;3800;48.922;9.444;2024-03-08T02:48:32;1.80;99.90
7518;DHT22;3800;48.922;9.444;2024-03-08T02:51:00;1.80;99.90
7518;DHT22;3800;48.922;9.444;2024-03-08T02:53:28;1.80;99.90
7518;DHT22;3800;48.922;9.444;2024-03-08T02:55:56;1.90;99.90
7518;DHT22;3800;48.922;9.444;2024-03-08T02:58:25;1.90;99.90
7518;DHT22;3800;48.922;9.444;2024-03-08T03:00:54;1.80;99.90
7518;DHT22;3800;48.922;9.444;2024-03-08T03:03:23;1.80;99.90
7518;DHT22;3800;48.922;9.444;2024-03-08T03:05:54;1.80;99.90
7518;DHT22;3800;48.922;9.444;2024-03-08T03:08:23;1.80;99.90
7518;DHT22;3800;48.922;9.444;2024-03-08T03:10:52;1.80;99.90
7518;DHT22;3800;48.922;9.444;2024-03-08T03:13:22;1.80;99.90
7518;DHT22;3800;48.922;9.444;2024-03-08T03:15:51;1.70;99.90
7518;DHT22;3800;48.922;9.444;2024-03-08T03:18:19;1.80;99.90
7518;DHT22;3800;48.922;9.444;2024-03-08T03:20:47;1.80;99.90
7518;DHT22;3800;48.922;9.444;2024-03-08T03:23:15;1.80;99.90
7518;DHT22;3800;48.922;9.444;2024-03-08T03:25:44;1.80;99.90
7518;DHT22;3800;48.922;9.444;2024-03-08T03:28:12;1.80;99.90
7518;DHT22;3800;48.922;9.444;2024-03-08T03:30:40;1.70;99.90
7518;DHT22;3800;48.922;9.444;2024-03-08T03:33:09;1.70;99.90
7518;DHT22;3800;48.922;9.444;2024-03-08T03:35:37;1.70;99.90
7518;DHT22;3800;48.922;9.444;2024-03-08T03:38:06;1.70;99.90
7518;DHT22;3800;48.922;9.444;2024-03-08T03:40:36;1.70;99.90
7518;DHT22;3800;48.922;9.444;2024-03-08T03:43:05;1.70;99.90
7518;DHT22;3800;48.922;9.444;2024-03-08T03:45:33;1.70;99.90
7518;DHT22;3800;48.922;9.444;2024-03-08T03:48:03;1.70;99.90
7518;DHT22;3800;48.922;9.444;2024-03-08T03:50:32;1.70;99.90
7518;DHT22;3800;48.922;9.444;2024-03-08T03:53:03;1.70;99.90
7518;DHT22;3800;48.922;9.444;2024-03-08T03:55:32;1.70;99.90
7518;DHT22;3800;48.922;9.444;2024-03-08T03:58:00;1.70;99.90
7518;DHT22;3800;48.922;9.444;2024-03-08T04:00:29;1.60;99.90
7518;DHT22;3800;48.922;9.444;2024-03-08T04:02:58;1.60;99.90
7518;DHT22;3800;48.922;9.444;2024-03-08T04:05:28;1.60;99.90
7518;DHT22;3800;48.922;9.444;2024-03-08T04:07:57;1.70;99.90
7518;DHT22;3800;48.922;9.444;2024-03-08T04:10:25;1.70;99.90
7518;DHT22;3800;48.922;9.444;2024-03-08T04:12:53;1.60;99.90
7518;DHT22;3800;48.922;9.444;2024-03-08T04:15:21;1.60;99.90
7518;DHT22;3800;48.922;9.444;2024-03-08T04:17:50;1.60;99.90
7518;DHT22;3800;48.922;9.444;2024-03-08T04:20:20;1.60;99.90
7518;DHT22;3800;48.922;9.444;2024-03-08T04:22:48;1.60;99.90
7518;DHT22;3800;48.922;9.444;2024-03-08T04:25:17;1.60;99.90
7518;DHT22;3800;48.922;9.444;2024-03-08T04:27:45;1.60;99.90
7518;DHT22;3800;48.922;9.444;2024-03-08T04:30:13;1.60;99.90
7518;DHT22;3800;48.922;9.444;2024-03-08T04:32:42;1.60;99.90
7518;DHT22;3800;48.922;9.444;2024-03-08T04:35:11;1.60;99.90
7518;DHT22;3800;48.922;9.444;2024-03-08T04:37:39;1.50;99.90
7518;DHT22;3800;48.922;9.444;2024-03-08T04:40:08;1.50;99.90
7518;DHT22;3800;48.922;9.444;2024-03-08T04:42:38;1.50;99.90
7518;DHT22;3800;48.922;9.444;2024-03-08T04:45:08;1.50;99.90
7518;DHT22;3800;48.922;9.444;2024-03-08T04:47:36;1.50;99.90
7518;DHT22;3800;48.922;9.444;2024-03-08T04:50:06;1.40;99.90
7518;DHT22;3800;48.922;9.444;2024-03-08T04:52:36;1.40;99.90
7518;DHT22;3800;48.922;9.444;2024-03-08T04:55:05;1.40;99.90
7518;DHT22;3800;48.922;9.444;2024-03-08T04:57:33;1.40;99.90
7518;DHT22;3800;48.922;9.444;2024-03-08T05:00:03;1.40;99.90
7518;DHT22;3800;48.922;9.444;2024-03-08T05:02:32;1.40;99.90
7518;DHT22;3800;48.922;9.444;2024-03-08T05:05:00;1.40;99.90
7518;DHT22;3800;48.922;9.444;2024-03-08T05:07:28;1.40;99.90
7518;DHT22;3800;48.922;9.444;2024-03-08T05:09:57;1.40;99.90
7518;DHT22;3800;48.922;9.444;2024-03-08T05:12:25;1.40;99.90
7518;DHT22;3800;48.922;9.444;2024-03-08T05:14:54;1.40;99.90
7518;DHT22;3800;48.922;9.444;2024-03-08T05:17:23;1.40;99.90
7518;DHT22;3800;48.922;9.444;2024-03-08T05:19:51;1.40;99.90
7518;DHT22;3800;48.922;9.444;2024-03-08T05:22:19;1.40;99.90
7518;DHT22;3800;48.922;9.444;2024-03-08T05:24:48;1.40;99.90
7518;DHT22;3800;48.922;9.444;2024-03-08T05:27:16;1.30;99.90
7518;DHT22;3800;48.922;9.444;2024-03-08T05:29:44;1.30;99.90
7518;DHT22;3800;48.922;9.444;2024-03-08T05:32:14;1.30;99.90
7518;DHT22;3800;48.922;9.444;2024-03-08T05:34:42;1.30;99.90
7518;DHT22;3800;48.922;9.444;2024-03-08T05:37:11;1.30;99.90
7518;DHT22;3800;48.922;9.444;2024-03-08T05:39:39;1.40;99.90
7518;DHT22;3800;48.922;9.444;2024-03-08T05:42:07;1.40;99.90
7518;DHT22;3800;48.922;9.444;2024-03-08T05:44:36;1.40;99.90
7518;DHT22;3800;48.922;9.444;2024-03-08T05:47:05;1.40;99.90
7518;DHT22;3800;48.922;9.444;2024-03-08T05:49:33;1.40;99.90
7518;DHT22;3800;48.922;9.444;2024-03-08T05:52:01;1.40;99.90
7518;DHT22;3800;48.922;9.444;2024-03-08T05:54:30;1.40;99.90
7518;DHT22;3800;48.922;9.444;2024-03-08T05:56:59;1.50;99.90
7518;DHT22;3800;48.922;9.444;2024-03-08T05:59:27;1.50;99.90
7518;DHT22;3800;48.922;9.444;2024-03-08T06:01:55;1.50;99.90
7518;DHT22;3800;48.922;9.444;2024-03-08T06:04:24;1.60;99.90
7518;DHT22;3800;48.922;9.444;2024-03-08T06:06:53;1.60;99.90
7518;DHT22;3800;48.922;9.444;2024-03-08T06:09:21;1.60;99.90
7518;DHT22;3800;48.922;9.444;2024-03-08T06:11:50;1.60;99.90
7518;DHT22;3800;48.922;9.444;2024-03-08T06:14:18;1.60;99.90
7518;DHT22;3800;48.922;9.444;2024-03-08T06:16:46;1.60;99.90
7518;DHT22;3800;48.922;9.444;2024-03-08T06:19:15;1.60;99.90
7518;DHT22;3800;48.922;9.444;2024-03-08T06:21:43;1.60;99.90
7518;DHT22;3800;48.922;9.444;2024-03-08T06:24:11;1.60;99.90
7518;DHT22;3800;48.922;9.444;2024-03-08T06:26:40;1.60;99.90
7518;DHT22;3800;48.922;9.444;2024-03-08T06:29:09;1.60;99.90
7518;DHT22;3800;48.922;9.444;2024-03-08T06:31:37;1.60;99.90
7518;DHT22;3800;48.922;9.444;2024-03-08T06:34:06;1.60;99.90
7518;DHT22;3800;48.922;9.444;2024-03-08T06:36:35;1.60;99.90
7518;DHT22;3800;48.922;9.444;2024-03-08T06:39:07;1.60;99.90
7518;DHT22;3800;48.922;9.444;2024-03-08T06:41:37;1.60;99.90
7518;DHT22;3800;48.922;9.444;2024-03-08T06:44:06;1.60;99.90
7518;DHT22;3800;48.922;9.444;2024-03-08T06:46:35;1.60;99.90
7518;DHT22;3800;48.922;9.444;2024-03-08T06:49:03;1.70;99.90
7518;DHT22;3800;48.922;9.444;2024-03-08T06:51:31;1.80;99.90
7518;DHT22;3800;48.922;9.444;2024-03-08T06:54:01;1.90;99.90
7518;DHT22;3800;48.922;9.444;2024-03-08T06:56:30;1.90;99.90
7518;DHT22;3800;48.922;9.444;2024-03-08T06:59:00;2.00;99.90
7518;DHT22;3800;48.922;9.444;2024-03-08T07:01:29;2.00;99.90
7518;DHT22;3800;48.922;9.444;2024-03-08T07:03:59;2.10;99.90
7518;DHT22;3800;48.922;9.444;2024-03-08T07:06:27;2.10;99.90
7518;DHT22;3800;48.922;9.444;2024-03-08T07:08:55;2.20;99.90
7518;DHT22;3800;48.922;9.444;2024-03-08T07:11:23;2.20;99.90
7518;DHT22;3800;48.922;9.444;2024-03-08T07:13:52;2.30;99.90
7518;DHT22;3800;48.922;9.444;2024-03-08T07:16:21;2.30;99.90
7518;DHT22;3800;48.922;9.444;2024-03-08T07:18:49;2.30;99.90
7518;DHT22;3800;48.922;9.444;2024-03-08T07:21:17;2.40;99.90
7518;DHT22;3800;48.922;9.444;2024-03-08T07:23:46;2.50;99.90
7518;DHT22;3800;48.922;9.444;2024-03-08T07:26:26;2.50;99.90
7518;DHT22;3800;48.922;9.444;2024-03-08T07:28:54;2.60;99.90
7518;DHT22;3800;48.922;9.444;2024-03-08T07:31:23;2.60;99.90
7518;DHT22;3800;48.922;9.444;2024-03-08T07:34:07;2.60;99.90
7518;DHT22;3800;48.922;9.444;2024-03-08T07:36:36;2.70;99.90
7518;DHT22;3800;48.922;9.444;2024-03-08T07:39:04;2.70;99.90
7518;DHT22;3800;48.922;9.444;2024-03-08T07:41:32;2.70;99.90
7518;DHT22;3800;48.922;9.444;2024-03-08T07:44:01;2.70;99.90
7518;DHT22;3800;48.922;9.444;2024-03-08T07:46:29;2.70;99.90
7518;DHT22;3800;48.922;9.444;2024-03-08T07:48:57;2.80;99.90
7518;DHT22;3800;48.922;9.444;2024-03-08T07:51:25;2.90;99.90
7518;DHT22;3800;48.922;9.444;2024-03-08T07:53:55;3.00;99.90
7518;DHT22;3800;48.922;9.444;2024-03-08T07:56:24;3.00;99.90
7518;DHT22;3800;48.922;9.444;2024-03-08T07:58:52;3.10;99.90
7518;DHT22;3800;48.922;9.444;2024-03-08T08:01:21;3.10;99.90
7518;DHT22;3800;48.922;9.444;2024-03-08T08:03:49;3.10;99.90
7518;DHT22;3800;48.922;9.444;2024-03-08T08:06:17;3.20;99.90
7518;DHT22;3800;48.922;9.444;2024-03-08T08:08:47;3.20;99.90
7518;DHT22;3800;48.922;9.444;2024-03-08T08:11:16;3.30;99.90
7518;DHT22;3800;48.922;9.444;2024-03-08T08:13:44;3.40;99.90
7518;DHT22;3800;48.922;9.444;2024-03-08T08:16:12;3.40;99.90
7518;DHT22;3800;48.922;9.444;2024-03-08T08:18:41;3.50;99.90
7518;DHT22;3800;48.922;9.444;2024-03-08T08:21:09;3.50;99.90
7518;DHT22;3800;48.922;9.444;2024-03-08T08:23:38;3.50;99.90
7518;DHT22;3800;48.922;9.444;2024-03-08T08:26:07;3.50;99.90
7518;DHT22;3800;48.922;9.444;2024-03-08T08:28:37;3.60;99.90
7518;DHT22;3800;48.922;9.444;2024-03-08T08:31:05;3.60;99.90
7518;DHT22;3800;48.922;9.444;2024-03-08T08:33:33;3.70;99.90
7518;DHT22;3800;48.922;9.444;2024-03-08T08:36:02;3.70;99.90
7518;DHT22;3800;48.922;9.444;2024-03-08T08:38:31;3.80;99.90
7518;DHT22;3800;48.922;9.444;2024-03-08T08:40:59;3.80;99.90
7518;DHT22;3800;48.922;9.444;2024-03-08T08:43:27;3.80;99.90
7518;DHT22;3800;48.922;9.444;2024-03-08T08:45:56;3.90;99.90
7518;DHT22;3800;48.922;9.444;2024-03-08T08:48:24;4.10;99.90
7518;DHT22;3800;48.922;9.444;2024-03-08T08:50:53;4.20;99.90
7518;DHT22;3800;48.922;9.444;2024-03-08T08:53:21;4.20;99.90
7518;DHT22;3800;48.922;9.444;2024-03-08T08:55:49;4.30;99.90
7518;DHT22;3800;48.922;9.444;2024-03-08T08:58:18;4.30;99.90
7518;DHT22;3800;48.922;9.444;2024-03-08T09:00:48;4.40;99.90
7518;DHT22;3800;48.922;9.444;2024-03-08T09:03:16;4.30;99.90
7518;DHT22;3800;48.922;9.444;2024-03-08T09:05:45;4.30;99.90
7518;DHT22;3800;48.922;9.444;2024-03-08T09:08:13;4.30;99.90
7518;DHT22;3800;48.922;9.444;2024-03-08T09:10:42;4.20;99.90
7518;DHT22;3800;48.922;9.444;2024-03-08T09:13:10;4.20;99.90
7518;DHT22;3800;48.922;9.444;2024-03-08T09:15:38;4.20;99.90
7518;DHT22;3800;48.922;9.444;2024-03-08T09:18:08;4.10;99.90
7518;DHT22;3800;48.922;9.444;2024-03-08T09:20:37;4.10;99.90
7518;DHT22;3800;48.922;9.444;2024-03-08T09:23:05;4.20;99.90
7518;DHT22;3800;48.922;9.444;2024-03-08T09:25:34;4.20;99.90
7518;DHT22;3800;48.922;9.444;2024-03-08T09:28:03;4.20;99.90
7518;DHT22;3800;48.922;9.444;2024-03-08T09:30:31;4.30;99.90
7518;DHT22;3800;48.922;9.444;2024-03-08T09:33:00;4.30;99.90
7518;DHT22;3800;48.922;9.444;2024-03-08T09:35:28;4.30;99.90
7518;DHT22;3800;48.922;9.444;2024-03-08T09:37:56;4.40;99.90
7518;DHT22;3800;48.922;9.444;2024-03-08T09:40:27;4.30;99.90
7518;DHT22;3800;48.922;9.444;2024-03-08T09:42:56;4.60;99.90
7518;DHT22;3800;48.922;9.444;2024-03-08T09:45:24;4.50;99.90
7518;DHT22;3800;48.922;9.444;2024-03-08T09:47:52;4.60;99.90
7518;DHT22;3800;48.922;9.444;2024-03-08T09:50:22;4.60;99.90
7518;DHT22;3800;48.922;9.444;2024-03-08T09:52:50;4.60;99.90
7518;DHT22;3800;48.922;9.444;2024-03-08T09:55:18;4.60;99.90
7518;DHT22;3800;48.922;9.444;2024-03-08T09:57:47;4.70;99.90
7518;DHT22;3800;48.922;9.444;2024-03-08T10:00:31;4.90;99.90
7518;DHT22;3800;48.922;9.444;2024-03-08T10:03:01;4.90;99.90
7518;DHT22;3800;48.922;9.444;2024-03-08T10:05:30;4.90;99.90
7518;DHT22;3800;48.922;9.444;2024-03-08T10:07:57;4.90;99.90
7518;DHT22;3800;48.922;9.444;2024-03-08T10:10:25;5.00;99.90
7518;DHT22;3800;48.922;9.444;2024-03-08T10:12:53;5.10;99.90
7518;DHT22;3800;48.922;9.444;2024-03-08T10:15:22;5.30;99.90
7518;DHT22;3800;48.922;9.444;2024-03-08T10:17:50;5.40;99.90
7518;DHT22;3800;48.922;9.444;2024-03-08T10:20:18;5.60;99.90
7518;DHT22;3800;48.922;9.444;2024-03-08T10:22:48;6.20;99.90
7518;DHT22;3800;48.922;9.444;2024-03-08T10:25:16;6.10;99.90
7518;DHT22;3800;48.922;9.444;2024-03-08T10:27:45;6.30;99.90
7518;DHT22;3800;48.922;9.444;2024-03-08T10:30:14;6.40;99.90
7518;DHT22;3800;48.922;9.444;2024-03-08T10:32:43;6.60;99.90
7518;DHT22;3800;48.922;9.444;2024-03-08T10:35:11;6.60;99.90
7518;DHT22;3800;48.922;9.444;2024-03-08T10:37:45;6.70;99.90
7518;DHT22;3800;48.922;9.444;2024-03-08T10:40:16;6.80;99.90
7518;DHT22;3800;48.922;9.444;2024-03-08T10:42:47;6.80;99.90
7518;DHT22;3800;48.922;9.444;2024-03-08T10:45:18;7.00;99.90
7518;DHT22;3800;48.922;9.444;2024-03-08T10:47:44;6.90;99.90
7518;DHT22;3800;48.922;9.444;2024-03-08T10:50:20;6.80;99.90
7518;DHT22;3800;48.922;9.444;2024-03-08T10:52:49;6.80;99.90
7518;DHT22;3800;48.922;9.444;2024-03-08T10:55:18;6.90;99.90
7518;DHT22;3800;48.922;9.444;2024-03-08T10:57:49;6.90;99.90
7518;DHT22;3800;48.922;9.444;2024-03-08T11:00:17;7.10;99.90
7518;DHT22;3800;48.922;9.444;2024-03-08T11:02:45;7.10;99.90
7518;DHT22;3800;48.922;9.444;2024-03-08T11:05:31;7.20;99.90
7518;DHT22;3800;48.922;9.444;2024-03-08T11:07:58;7.40;99.90
7518;DHT22;3800;48.922;9.444;2024-03-08T11:10:27;7.50;99.90
7518;DHT22;3800;48.922;9.444;2024-03-08T11:12:56;7.60;99.90
7518;DHT22;3800;48.922;9.444;2024-03-08T11:15:24;7.70;99.90
7518;DHT22;3800;48.922;9.444;2024-03-08T11:17:53;7.70;99.90
7518;DHT22;3800;48.922;9.444;2024-03-08T11:20:23;7.80;99.90
7518;DHT22;3800;48.922;9.444;2024-03-08T11:22:52;7.80;99.90
7518;DHT22;3800;48.922;9.444;2024-03-08T11:25:32;7.90;99.90
7518;DHT22;3800;48.922;9.444;2024-03-08T11:28:10;7.90;99.90
7518;DHT22;3800;48.922;9.444;2024-03-08T11:30:39;8.00;99.90
7518;DHT22;3800;48.922;9.444;2024-03-08T11:33:11;8.00;99.90
7518;DHT22;3800;48.922;9.444;2024-03-08T11:35:37;8.00;99.90
7518;DHT22;3800;48.922;9.444;2024-03-08T11:38:07;8.10;99.90
7518;DHT22;3800;48.922;9.444;2024-03-08T11:40:35;8.10;99.90
7518;DHT22;3800;48.922;9.444;2024-03-08T11:43:03;8.00;99.90
7518;DHT22;3800;48.922;9.444;2024-03-08T11:45:32;8.00;99.90
7518;DHT22;3800;48.922;9.444;2024-03-08T11:48:03;8.10;99.90
7518;DHT22;3800;48.922;9.444;2024-03-08T11:50:32;8.00;99.90
7518;DHT22;3800;48.922;9.444;2024-03-08T11:53:01;7.90;99.90
7518;DHT22;3800;48.922;9.444;2024-03-08T11:55:30;7.90;99.90
7518;DHT22;3800;48.922;9.444;2024-03-08T11:58:01;7.90;99.90
7518;DHT22;3800;48.922;9.444;2024-03-08T12:00:29;8.10;99.90
7518;DHT22;3800;48.922;9.444;2024-03-08T12:03:03;8.00;99.90
7518;DHT22;3800;48.922;9.444;2024-03-08T12:05:32;8.10;99.90
7518;DHT22;3800;48.922;9.444;2024-03-08T12:08:01;8.20;99.90
7518;DHT22;3800;48.922;9.444;2024-03-08T12:10:29;8.20;99.90
7518;DHT22;3800;48.922;9.444;2024-03-08T12:12:58;8.30;99.90
7518;DHT22;3800;48.922;9.444;2024-03-08T12:15:27;8.30;99.90
7518;DHT22;3800;48.922;9.444;2024-03-08T12:17:56;8.40;99.90
7518;DHT22;3800;48.922;9.444;2024-03-08T12:20:25;8.30;99.90
7518;DHT22;3800;48.922;9.444;2024-03-08T12:22:53;8.40;99.90
7518;DHT22;3800;48.922;9.444;2024-03-08T12:25:27;8.50;99.90
7518;DHT22;3800;48.922;9.444;2024-03-08T12:27:55;8.60;99.90
7518;DHT22;3800;48.922;9.444;2024-03-08T12:30:24;8.70;99.90
7518;DHT22;3800;48.922;9.444;2024-03-08T12:32:55;8.70;99.90
7518;DHT22;3800;48.922;9.444;2024-03-08T12:35:25;8.80;99.90
7518;DHT22;3800;48.922;9.444;2024-03-08T12:37:53;8.90;99.90
7518;DHT22;3800;48.922;9.444;2024-03-08T12:40:27;9.00;99.90
7518;DHT22;3800;48.922;9.444;2024-03-08T12:42:55;9.00;99.90
7518;DHT22;3800;48.922;9.444;2024-03-08T12:45:24;9.10;99.90
7518;DHT22;3800;48.922;9.444;2024-03-08T12:47:53;9.10;99.90
7518;DHT22;3800;48.922;9.444;2024-03-08T12:50:21;9.20;99.90
7518;DHT22;3800;48.922;9.444;2024-03-08T12:52:49;9.20;99.90
7518;DHT22;3800;48.922;9.444;2024-03-08T12:55:17;9.20;99.90
7518;DHT22;3800;48.922;9.444;2024-03-08T12:57:46;9.20;99.90
7518;DHT22;3800;48.922;9.444;2024-03-08T13:00:15;9.10;99.90
7518;DHT22;3800;48.922;9.444;2024-03-08T13:02:47;9.10;99.90
7518;DHT22;3800;48.922;9.444;2024-03-08T13:05:15;9.10;99.90
7518;DHT22;3800;48.922;9.444;2024-03-08T13:07:44;9.30;99.90
7518;DHT22;3800;48.922;9.444;2024-03-08T13:10:13;9.40;99.90
7518;DHT22;3800;48.922;9.444;2024-03-08T13:12:42;9.40;99.90
7518;DHT22;3800;48.922;9.444;2024-03-08T13:15:11;9.50;99.90
7518;DHT22;3800;48.922;9.444;2024-03-08T13:17:39;9.60;99.90
7518;DHT22;3800;48.922;9.444;2024-03-08T13:20:10;9.60;99.90
7518;DHT22;3800;48.922;9.444;2024-03-08T13:22:39;9.60;99.90
7518;DHT22;3800;48.922;9.444;2024-03-08T13:25:08;9.60;99.90
7518;DHT22;3800;48.922;9.444;2024-03-08T13:27:36;9.70;99.90
7518;DHT22;3800;48.922;9.444;2024-03-08T13:30:05;9.80;99.90
7518;DHT22;3800;48.922;9.444;2024-03-08T13:32:35;10.00;99.90
7518;DHT22;3800;48.922;9.444;2024-03-08T13:35:03;10.00;99.90
7518;DHT22;3800;48.922;9.444;2024-03-08T13:37:33;10.00;99.90
7518;DHT22;3800;48.922;9.444;2024-03-08T13:40:01;10.10;99.90
7518;DHT22;3800;48.922;9.444;2024-03-08T13:42:31;10.20;99.90
7518;DHT22;3800;48.922;9.444;2024-03-08T13:45:00;10.20;99.90
7518;DHT22;3800;48.922;9.444;2024-03-08T13:47:28;10.20;99.90
7518;DHT22;3800;48.922;9.444;2024-03-08T13:49:57;10.30;99.90
7518;DHT22;3800;48.922;9.444;2024-03-08T13:52:26;10.30;99.90
7518;DHT22;3800;48.922;9.444;2024-03-08T13:54:55;10.30;99.90
7518;DHT22;3800;48.922;9.444;2024-03-08T13:57:23;10.30;99.90
7518;DHT22;3800;48.922;9.444;2024-03-08T13:59:51;10.30;99.90
7518;DHT22;3800;48.922;9.444;2024-03-08T14:02:21;10.20;99.90
7518;DHT22;3800;48.922;9.444;2024-03-08T14:04:49;10.30;99.90
7518;DHT22;3800;48.922;9.444;2024-03-08T14:07:17;10.30;99.90
7518;DHT22;3800;48.922;9.444;2024-03-08T14:09:45;10.30;99.90
7518;DHT22;3800;48.922;9.444;2024-03-08T14:12:15;10.50;99.90
7518;DHT22;3800;48.922;9.444;2024-03-08T14:14:44;10.40;99.90
7518;DHT22;3800;48.922;9.444;2024-03-08T14:17:12;10.50;99.90
7518;DHT22;3800;48.922;9.444;2024-03-08T14:19:40;10.50;99.90
7518;DHT22;3800;48.922;9.444;2024-03-08T14:22:09;10.40;99.90
7518;DHT22;3800;48.922;9.444;2024-03-08T14:24:37;10.50;99.90
7518;DHT22;3800;48.922;9.444;2024-03-08T14:27:06;10.50;99.90
7518;DHT22;3800;48.922;9.444;2024-03-08T14:29:35;10.60;99.90
7518;DHT22;3800;48.922;9.444;2024-03-08T14:32:05;10.70;99.90
7518;DHT22;3800;48.922;9.444;2024-03-08T14:34:34;10.70;99.90
7518;DHT22;3800;48.922;9.444;2024-03-08T14:37:03;10.70;99.90
7518;DHT22;3800;48.922;9.444;2024-03-08T14:39:32;10.70;99.90
7518;DHT22;3800;48.922;9.444;2024-03-08T14:42:01;10.70;99.90
7518;DHT22;3800;48.922;9.444;2024-03-08T14:44:31;10.80;99.90
7518;DHT22;3800;48.922;9.444;2024-03-08T14:46:59;10.90;99.90
7518;DHT22;3800;48.922;9.444;2024-03-08T14:49:28;10.90;99.90
7518;DHT22;3800;48.922;9.444;2024-03-08T14:51:57;10.90;99.90
7518;DHT22;3800;48.922;9.444;2024-03-08T14:54:25;10.90;99.90
7518;DHT22;3800;48.922;9.444;2024-03-08T14:56:53;10.90;99.90
7518;DHT22;3800;48.922;9.444;2024-03-08T14:59:22;11.00;99.90
7518;DHT22;3800;48.922;9.444;2024-03-08T15:01:51;11.00;99.90
7518;DHT22;3800;48.922;9.444;2024-03-08T15:04:19;10.90;99.90
7518;DHT22;3800;48.922;9.444;2024-03-08T15:06:48;10.90;99.90
7518;DHT22;3800;48.922;9.444;2024-03-08T15:09:16;10.80;99.90
7518;DHT22;3800;48.922;9.444;2024-03-08T15:11:45;10.80;99.90
7518;DHT22;3800;48.922;9.444;2024-03-08T15:14:13;10.90;99.90
7518;DHT22;3800;48.922;9.444;2024-03-08T15:16:42;10.80;99.90
7518;DHT22;3800;48.922;9.444;2024-03-08T15:19:10;10.80;99.90
7518;DHT22;3800;48.922;9.444;2024-03-08T15:21:39;10.80;99.90
7518;DHT22;3800;48.922;9.444;2024-03-08T15:24:08;10.80;99.90
7518;DHT22;3800;48.922;9.444;2024-03-08T15:26:36;10.80;99.90
7518;DHT22;3800;48.922;9.444;2024-03-08T15:29:04;10.80;99.90
7518;DHT22;3800;48.922;9.444;2024-03-08T15:31:33;10.80;99.90
7518;DHT22;3800;48.922;9.444;2024-03-08T15:34:01;10.80;99.90
7518;DHT22;3800;48.922;9.444;2024-03-08T15:36:30;10.80;99.90
7518;DHT22;3800;48.922;9.444;2024-03-08T15:38:58;10.80;99.90
7518;DHT22;3800;48.922;9.444;2024-03-08T15:41:27;10.80;99.90
7518;DHT22;3800;48.922;9.444;2024-03-08T15:43:56;10.70;99.90
7518;DHT22;3800;48.922;9.444;2024-03-08T15:46:25;10.70;99.90
7518;DHT22;3800;48.922;9.444;2024-03-08T15:48:53;10.70;99.90
7518;DHT22;3800;48.922;9.444;2024-03-08T15:51:21;10.80;99.90
7518;DHT22;3800;48.922;9.444;2024-03-08T15:53:52;10.80;99.90
7518;DHT22;3800;48.922;9.444;2024-03-08T15:56:21;10.80;99.90
7518;DHT22;3800;48.922;9.444;2024-03-08T15:58:50;10.70;99.90
7518;DHT22;3800;48.922;9.444;2024-03-08T16:01:18;10.70;99.90
7518;DHT22;3800;48.922;9.444;2024-03-08T16:03:46;10.60;99.90
7518;DHT22;3800;48.922;9.444;2024-03-08T16:06:18;10.60;99.90
7518;DHT22;3800;48.922;9.444;2024-03-08T16:08:48;10.60;99.90
7518;DHT22;3800;48.922;9.444;2024-03-08T16:11:17;10.50;99.90
7518;DHT22;3800;48.922;9.444;2024-03-08T16:13:46;10.50;99.90
7518;DHT22;3800;48.922;9.444;2024-03-08T16:16:15;10.40;99.90
7518;DHT22;3800;48.922;9.444;2024-03-08T16:18:43;10.40;99.90
7518;DHT22;3800;48.922;9.444;2024-03-08T16:21:12;10.30;99.90
7518;DHT22;3800;48.922;9.444;2024-03-08T16:23:40;10.20;99.90